createdAt,value
2024-02-11T00:01:52.469Z,5.28
2024-02-11T00:04:23.641Z,5.55
2024-02-11T00:06:56.061Z,5.40
2024-02-11T00:09:27.259Z,6.00
2024-02-11T00:11:58.467Z,5.38
2024-02-11T00:14:29.974Z,4.00
2024-02-11T00:17:04.068Z,6.15
2024-02-11T00:19:36.216Z,4.75
2024-02-11T00:22:07.457Z,4.35
2024-02-11T00:24:38.289Z,5.63
2024-02-11T00:27:10.846Z,3.75
2024-02-11T00:29:41.835Z,5.97
2024-02-11T00:32:16.417Z,4.93
2024-02-11T00:34:47.328Z,7.80
2024-02-11T00:37:18.340Z,6.30
2024-02-11T00:39:49.308Z,8.60
2024-02-11T00:42:21.388Z,5.05
2024-02-11T00:44:53.678Z,6.47
2024-02-11T00:47:27.428Z,4.93
2024-02-11T00:49:58.615Z,6.97
2024-02-11T00:52:30.546Z,7.70
2024-02-11T00:55:01.671Z,4.50
2024-02-11T00:57:32.989Z,6.15
2024-02-11T01:00:04.483Z,7.97
2024-02-11T01:02:38.167Z,3.42
2024-02-11T01:05:09.831Z,5.20
2024-02-11T01:07:43.276Z,4.72
2024-02-11T01:10:14.810Z,5.28
2024-02-11T01:12:46.619Z,6.45
2024-02-11T01:15:18.942Z,4.05
2024-02-11T01:17:53.788Z,4.22
2024-02-11T01:20:24.720Z,6.72
2024-02-11T01:22:56.421Z,4.05
2024-02-11T01:25:27.725Z,5.80
2024-02-11T01:27:58.789Z,3.72
2024-02-11T01:30:30.138Z,5.63
2024-02-11T01:33:05.319Z,4.30
2024-02-11T01:35:36.504Z,3.78
2024-02-11T01:38:07.698Z,3.90
2024-02-11T01:40:38.823Z,3.75
2024-02-11T01:43:12.546Z,7.30
2024-02-11T01:45:43.673Z,5.25
2024-02-11T01:48:17.972Z,5.13
2024-02-11T01:50:53.993Z,5.40
2024-02-11T01:53:26.837Z,6.20
2024-02-11T01:55:58.614Z,4.20
2024-02-11T01:58:30.501Z,3.63
2024-02-11T02:01:01.781Z,4.40
2024-02-11T02:03:36.517Z,7.00
2024-02-11T02:06:07.883Z,3.65
2024-02-11T02:08:38.853Z,7.38
2024-02-11T02:11:11.972Z,4.40
2024-02-11T02:13:43.229Z,4.93
2024-02-11T02:16:14.130Z,4.30
2024-02-11T02:18:53.506Z,5.63
2024-02-11T02:21:24.613Z,3.65
2024-02-11T02:23:58.090Z,5.05
2024-02-11T02:26:29.196Z,4.68
2024-02-11T02:29:00.209Z,4.43
2024-02-11T02:31:31.243Z,4.30
2024-02-11T02:34:02.422Z,4.60
2024-02-11T02:36:33.506Z,5.03
2024-02-11T02:39:07.568Z,5.40
2024-02-11T02:41:38.523Z,4.50
2024-02-11T02:44:09.667Z,4.85
2024-02-11T02:46:40.690Z,6.65
2024-02-11T02:49:13.790Z,3.10
2024-02-11T02:51:44.725Z,4.70
2024-02-11T02:54:18.458Z,5.60
2024-02-11T02:56:49.401Z,6.60
2024-02-11T02:59:20.525Z,4.15
2024-02-11T03:01:51.486Z,5.78
2024-02-11T03:04:23.792Z,4.50
2024-02-11T03:06:57.328Z,3.42
2024-02-11T03:09:30.803Z,4.72
2024-02-11T03:12:01.624Z,5.25
2024-02-11T03:14:33.054Z,4.85
2024-02-11T03:17:04.662Z,4.72
2024-02-11T03:19:35.724Z,4.40
2024-02-11T03:22:08.127Z,5.03
2024-02-11T03:24:41.911Z,4.40
2024-02-11T03:27:12.750Z,3.42
2024-02-11T03:29:43.606Z,5.72
2024-02-11T03:32:14.579Z,4.63
2024-02-11T03:34:45.640Z,3.65
2024-02-11T03:37:16.663Z,2.88
2024-02-11T03:39:56.195Z,4.53
2024-02-11T03:42:27.231Z,3.10
2024-02-11T03:44:58.108Z,3.60
2024-02-11T03:47:29.361Z,2.42
2024-02-11T03:50:00.389Z,3.38
2024-02-11T03:52:31.334Z,4.35
2024-02-11T03:55:06.833Z,2.88
2024-02-11T03:57:39.464Z,3.53
2024-02-11T04:00:27.460Z,3.40
2024-02-11T04:02:59.236Z,4.50
2024-02-11T04:05:30.608Z,3.65
2024-02-11T04:08:03.062Z,4.13
2024-02-11T04:10:38.155Z,3.13
2024-02-11T04:13:11.167Z,6.25
2024-02-11T04:15:43.141Z,4.18
2024-02-11T04:18:14.323Z,4.07
2024-02-11T04:20:45.412Z,3.85
2024-02-11T04:23:16.309Z,4.45
2024-02-11T04:25:50.222Z,4.03
2024-02-11T04:28:22.096Z,3.38
2024-02-11T04:30:53.116Z,5.40
2024-02-11T04:33:25.334Z,3.15
2024-02-11T04:35:57.438Z,3.13
2024-02-11T04:38:29.266Z,2.80
2024-02-11T04:41:03.425Z,3.83
2024-02-11T04:43:35.677Z,4.35
2024-02-11T04:46:07.232Z,3.00
2024-02-11T04:48:38.661Z,3.05
2024-02-11T04:51:09.657Z,2.80
2024-02-11T04:53:42.395Z,2.80
2024-02-11T04:56:17.559Z,4.03
2024-02-11T04:58:49.075Z,3.72
2024-02-11T05:01:21.536Z,3.88
2024-02-11T05:03:52.651Z,2.85
2024-02-11T05:06:25.673Z,2.25
2024-02-11T05:08:57.694Z,3.80
2024-02-11T05:11:31.143Z,3.35
2024-02-11T05:14:02.861Z,3.45
2024-02-11T05:16:35.943Z,2.25
2024-02-11T05:19:07.268Z,3.65
2024-02-11T05:21:38.301Z,3.03
2024-02-11T05:24:09.655Z,3.70
2024-02-11T05:26:43.200Z,3.47
2024-02-11T05:29:14.110Z,3.05
2024-02-11T05:31:46.669Z,2.17
2024-02-11T05:34:19.060Z,2.85
2024-02-11T05:36:50.013Z,3.08
2024-02-11T05:39:21.121Z,2.65
2024-02-11T05:41:54.493Z,3.15
2024-02-11T05:44:25.448Z,2.28
2024-02-11T05:46:56.552Z,3.65
2024-02-11T05:49:28.505Z,2.92
2024-02-11T05:51:59.829Z,3.13
2024-02-11T05:54:30.717Z,2.55
2024-02-11T05:57:04.165Z,2.53
2024-02-11T05:59:35.457Z,2.75
2024-02-11T06:02:06.864Z,3.03
2024-02-11T06:04:37.796Z,4.78
2024-02-11T06:07:10.436Z,2.42
2024-02-11T06:09:41.274Z,4.90
2024-02-11T06:12:16.077Z,2.10
2024-02-11T06:14:46.986Z,4.32
2024-02-11T06:17:18.096Z,2.67
2024-02-11T06:19:49.113Z,3.03
2024-02-11T06:22:20.250Z,3.63
2024-02-11T06:24:53.121Z,2.35
2024-02-11T06:27:26.772Z,2.97
2024-02-11T06:29:59.255Z,3.53
2024-02-11T06:32:30.268Z,2.40
2024-02-11T06:35:01.142Z,2.80
2024-02-11T06:37:32.761Z,3.80
2024-02-11T06:40:03.906Z,2.90
2024-02-11T06:42:38.322Z,2.90
2024-02-11T06:45:10.358Z,1.90
2024-02-11T06:47:42.105Z,3.17
2024-02-11T06:50:16.500Z,2.47
2024-02-11T06:52:50.411Z,3.05
2024-02-11T06:55:22.306Z,5.05
2024-02-11T06:57:56.783Z,2.78
2024-02-11T07:00:28.177Z,3.33
2024-02-11T07:03:03.946Z,2.70
2024-02-11T07:05:35.886Z,2.40
2024-02-11T07:08:08.705Z,2.20
2024-02-11T07:10:39.608Z,3.15
2024-02-11T07:13:13.209Z,3.33
2024-02-11T07:15:44.093Z,2.53
2024-02-11T07:18:14.988Z,3.33
2024-02-11T07:20:45.514Z,3.83
2024-02-11T07:23:16.273Z,1.83
2024-02-11T07:25:47.090Z,3.20
2024-02-11T07:28:20.190Z,3.15
2024-02-11T07:30:51.093Z,4.25
2024-02-11T07:33:22.016Z,3.03
2024-02-11T07:35:52.868Z,4.97
2024-02-11T07:38:27.541Z,4.60
2024-02-11T07:40:58.220Z,4.22
2024-02-11T07:43:31.389Z,2.50
2024-02-11T07:46:03.050Z,2.33
2024-02-11T07:48:33.826Z,4.25
2024-02-11T07:51:04.448Z,5.30
2024-02-11T07:53:35.308Z,3.28
2024-02-11T07:56:08.098Z,2.83
2024-02-11T07:58:41.607Z,2.15
2024-02-11T08:01:12.227Z,5.85
2024-02-11T08:03:43.578Z,4.82
2024-02-11T08:06:14.256Z,5.00
2024-02-11T08:08:45.273Z,3.33
2024-02-11T08:11:15.916Z,5.43
2024-02-11T08:13:51.193Z,3.10
2024-02-11T08:16:23.761Z,8.65
2024-02-11T08:18:56.530Z,3.90
2024-02-11T08:21:27.764Z,3.55
2024-02-11T08:23:58.753Z,6.57
2024-02-11T08:26:29.349Z,4.20
2024-02-11T08:29:03.976Z,4.25
2024-02-11T08:31:34.572Z,4.32
2024-02-11T08:34:05.278Z,4.43
2024-02-11T08:36:35.841Z,6.05
2024-02-11T08:39:06.504Z,4.20
2024-02-11T08:41:38.239Z,4.32
2024-02-11T08:44:13.411Z,4.97
2024-02-11T08:46:43.982Z,7.18
2024-02-11T08:49:16.456Z,5.38
2024-02-11T08:51:46.975Z,5.15
2024-02-11T08:54:18.863Z,3.03
2024-02-11T08:56:49.347Z,6.85
2024-02-11T08:59:22.558Z,5.22
2024-02-11T09:01:54.741Z,6.68
2024-02-11T09:04:25.877Z,5.60
2024-02-11T09:06:56.812Z,5.40
2024-02-11T09:09:30.893Z,6.80
2024-02-11T09:12:01.793Z,5.18
2024-02-11T09:14:38.567Z,9.10
2024-02-11T09:17:09.507Z,6.03
2024-02-11T09:19:40.301Z,4.88
2024-02-11T09:22:11.208Z,6.28
2024-02-11T09:24:42.575Z,6.63
2024-02-11T09:27:14.131Z,6.25
2024-02-11T09:29:47.453Z,8.63
2024-02-11T09:32:18.361Z,5.93
2024-02-11T09:34:51.584Z,5.22
2024-02-11T09:37:22.194Z,5.82
2024-02-11T09:39:52.664Z,4.72
2024-02-11T09:42:24.938Z,6.20
2024-02-11T09:44:58.525Z,8.85
2024-02-11T09:47:29.953Z,6.68
2024-02-11T09:50:02.785Z,6.43
2024-02-11T09:52:33.497Z,6.57
2024-02-11T09:55:05.373Z,6.03
2024-02-11T09:57:35.900Z,8.80
2024-02-11T10:00:11.060Z,4.47
2024-02-11T10:02:43.156Z,6.95
2024-02-11T10:05:14.762Z,5.30
2024-02-11T10:07:47.952Z,6.50
2024-02-11T10:10:19.203Z,7.30
2024-02-11T10:12:50.020Z,6.65
2024-02-11T10:15:23.330Z,6.35
2024-02-11T10:17:53.947Z,7.75
2024-02-11T10:20:25.193Z,5.72
2024-02-11T10:22:56.736Z,8.10
2024-02-11T10:25:28.469Z,6.22
2024-02-11T10:28:01.329Z,5.53
2024-02-11T10:30:36.099Z,5.53
2024-02-11T10:33:07.981Z,6.45
2024-02-11T10:35:39.589Z,7.90
2024-02-11T10:38:11.531Z,5.57
2024-02-11T10:40:45.489Z,7.55
2024-02-11T10:43:17.524Z,6.18
2024-02-11T10:45:51.696Z,4.22
2024-02-11T10:48:23.208Z,7.65
2024-02-11T10:50:55.666Z,5.97
2024-02-11T10:53:28.054Z,7.28
2024-02-11T10:56:00.015Z,6.88
2024-02-11T10:58:34.574Z,5.95
2024-02-11T11:01:09.556Z,7.07
2024-02-11T11:03:41.486Z,6.68
2024-02-11T11:06:12.933Z,7.25
2024-02-11T11:08:45.089Z,8.57
2024-02-11T11:11:16.205Z,10.32
2024-02-11T11:13:47.057Z,11.30
2024-02-11T11:16:25.207Z,15.32
2024-02-11T11:18:56.062Z,11.38
2024-02-11T11:21:28.031Z,18.30
2024-02-11T11:24:03.559Z,11.35
2024-02-11T11:26:34.230Z,15.98
2024-02-11T11:29:07.869Z,16.15
2024-02-11T11:31:41.333Z,13.50
2024-02-11T11:34:13.181Z,16.02
2024-02-11T11:36:56.274Z,14.10
2024-02-11T11:39:30.821Z,18.65
2024-02-11T11:42:02.936Z,17.27
2024-02-11T11:44:33.713Z,16.08
2024-02-11T11:47:09.177Z,17.25
2024-02-11T11:49:40.187Z,17.95
2024-02-11T11:52:11.792Z,16.83
2024-02-11T11:54:42.402Z,13.18
2024-02-11T11:57:17.949Z,14.70
2024-02-11T11:59:48.783Z,15.20
2024-02-11T12:02:22.051Z,15.45
2024-02-11T12:04:53.024Z,16.60
2024-02-11T12:07:25.150Z,15.93
2024-02-11T12:09:56.151Z,15.15
2024-02-11T12:12:26.762Z,20.02
2024-02-11T12:14:57.360Z,15.77
2024-02-11T12:17:31.014Z,15.27
2024-02-11T12:20:02.002Z,14.52
2024-02-11T12:22:32.728Z,17.48
2024-02-11T12:25:03.821Z,15.18
2024-02-11T12:27:34.612Z,14.05
2024-02-11T12:30:05.274Z,12.60
2024-02-11T12:32:39.318Z,16.92
2024-02-11T12:35:10.215Z,12.25
2024-02-11T12:37:40.927Z,16.73
2024-02-11T12:40:12.128Z,15.73
2024-02-11T12:42:42.663Z,17.25
2024-02-11T12:45:14.171Z,17.42
2024-02-11T12:47:47.841Z,16.33
2024-02-11T12:50:21.452Z,18.45
2024-02-11T12:52:52.524Z,17.83
2024-02-11T12:55:26.248Z,18.45
2024-02-11T12:57:57.070Z,19.23
2024-02-11T13:00:27.928Z,18.50
2024-02-11T13:03:02.068Z,12.93
2024-02-11T13:05:32.781Z,15.50
2024-02-11T13:08:03.353Z,16.52
2024-02-11T13:10:34.113Z,16.00
2024-02-11T13:13:04.715Z,17.38
2024-02-11T13:15:37.217Z,15.13
2024-02-11T13:18:11.628Z,14.48
2024-02-11T13:20:43.590Z,17.10
2024-02-11T13:23:14.257Z,16.95
2024-02-11T13:25:47.075Z,13.85
2024-02-11T13:28:18.785Z,11.70
2024-02-11T13:30:50.374Z,15.38
2024-02-11T13:33:24.583Z,13.57
2024-02-11T13:35:55.299Z,11.77
2024-02-11T13:38:26.913Z,15.88
2024-02-11T13:40:58.214Z,14.05
2024-02-11T13:43:28.793Z,20.95
2024-02-11T13:46:00.083Z,13.07
2024-02-11T13:48:33.433Z,12.80
2024-02-11T13:51:04.281Z,14.38
2024-02-11T13:53:39.412Z,13.27
2024-02-11T13:56:11.473Z,13.73
2024-02-11T13:58:44.074Z,10.80
2024-02-11T14:01:16.049Z,12.57
2024-02-11T14:03:50.024Z,10.93
2024-02-11T14:06:21.689Z,10.63
2024-02-11T14:08:53.583Z,10.80
2024-02-11T14:11:25.937Z,13.55
2024-02-11T14:13:56.761Z,15.68
2024-02-11T14:16:27.357Z,11.13
2024-02-11T14:19:00.794Z,17.20
2024-02-11T14:21:31.405Z,15.18
2024-02-11T14:24:02.396Z,14.73
2024-02-11T14:26:33.364Z,14.65
2024-02-11T14:29:03.991Z,11.80
2024-02-11T14:31:34.586Z,16.27
2024-02-11T14:34:09.132Z,13.88
2024-02-11T14:36:40.823Z,14.35
2024-02-11T14:39:11.814Z,11.73
2024-02-11T14:41:45.066Z,13.77
2024-02-11T14:44:16.042Z,11.50
2024-02-11T14:46:46.647Z,10.57
2024-02-11T14:49:20.525Z,9.98
2024-02-11T14:51:51.112Z,12.52
2024-02-11T14:54:21.880Z,11.48
2024-02-11T14:56:53.013Z,10.45
2024-02-11T14:59:25.517Z,13.18
2024-02-11T15:01:56.232Z,9.15
2024-02-11T15:04:30.537Z,10.38
2024-02-11T15:07:01.210Z,10.75
2024-02-11T15:09:31.846Z,12.85
2024-02-11T15:12:02.844Z,11.10
2024-02-11T15:14:34.508Z,11.35
2024-02-11T15:17:05.367Z,10.82
2024-02-11T15:19:41.273Z,16.70
2024-02-11T15:22:13.547Z,9.05
2024-02-11T15:24:46.475Z,12.90
2024-02-11T15:27:18.785Z,9.07
2024-02-11T15:29:50.190Z,12.88
2024-02-11T15:32:20.888Z,11.43
2024-02-11T15:34:54.418Z,13.80
2024-02-11T15:37:25.020Z,14.02
2024-02-11T15:39:55.611Z,13.55
2024-02-11T15:42:28.699Z,12.07
2024-02-11T15:45:01.512Z,12.13
2024-02-11T15:47:32.350Z,10.63
2024-02-11T15:50:06.371Z,11.82
2024-02-11T15:52:37.081Z,13.43
2024-02-11T15:55:08.987Z,10.20
2024-02-11T15:57:41.397Z,9.43
2024-02-11T16:00:17.718Z,11.90
2024-02-11T16:02:48.518Z,16.35
2024-02-11T16:05:21.839Z,14.77
2024-02-11T16:07:52.629Z,11.38
2024-02-11T16:10:27.196Z,8.95
2024-02-11T16:12:57.768Z,11.82
2024-02-11T16:15:29.034Z,9.38
2024-02-11T16:18:01.788Z,15.15
2024-02-11T16:20:35.982Z,11.77
2024-02-11T16:23:06.681Z,9.85
2024-02-11T16:25:39.327Z,9.20
2024-02-11T16:28:10.349Z,12.35
2024-02-11T16:30:41.050Z,10.93
2024-02-11T16:33:11.606Z,11.15
2024-02-11T16:35:45.102Z,8.98
2024-02-11T16:38:15.715Z,7.40
2024-02-11T16:40:46.524Z,11.38
2024-02-11T16:43:17.367Z,8.82
2024-02-11T16:45:48.849Z,10.52
2024-02-11T16:48:19.611Z,13.68
2024-02-11T16:50:53.510Z,8.25
2024-02-11T16:53:25.135Z,9.10
2024-02-11T16:55:55.835Z,9.07
2024-02-11T16:58:28.687Z,13.60
2024-02-11T17:01:03.505Z,8.07
2024-02-11T17:03:34.235Z,10.40
2024-02-11T17:06:07.893Z,13.48
2024-02-11T17:08:38.651Z,8.10
2024-02-11T17:11:11.032Z,10.55
2024-02-11T17:13:42.614Z,7.60
2024-02-11T17:16:13.227Z,12.80
2024-02-11T17:18:44.119Z,8.38
2024-02-11T17:21:17.544Z,7.53
2024-02-11T17:23:49.061Z,9.18
2024-02-11T17:26:21.419Z,8.73
2024-02-11T17:28:56.593Z,7.90
2024-02-11T17:31:28.158Z,8.60
2024-02-11T17:33:59.578Z,7.70
2024-02-11T17:36:32.809Z,9.52
2024-02-11T17:39:07.215Z,10.00
2024-02-11T17:41:38.131Z,7.95
2024-02-11T17:44:09.227Z,9.57
2024-02-11T17:46:41.998Z,8.75
2024-02-11T17:49:13.409Z,6.82
2024-02-11T17:51:47.144Z,8.63
2024-02-11T17:54:19.610Z,6.60
2024-02-11T17:56:50.863Z,9.98
2024-02-11T17:59:24.022Z,8.77
2024-02-11T18:01:57.097Z,8.40
2024-02-11T18:04:28.681Z,10.77
2024-02-11T18:07:01.979Z,7.43
2024-02-11T18:09:32.590Z,7.78
2024-02-11T18:12:03.243Z,8.80
2024-02-11T18:14:33.861Z,5.75
2024-02-11T18:17:06.015Z,5.95
2024-02-11T18:19:38.486Z,6.82
2024-02-11T18:22:14.097Z,6.85
2024-02-11T18:24:45.367Z,6.97
2024-02-11T18:27:17.286Z,9.18
2024-02-11T18:29:48.153Z,11.90
2024-02-11T18:32:19.019Z,6.93
2024-02-11T18:34:49.833Z,9.05
2024-02-11T18:37:23.223Z,5.93
2024-02-11T18:39:54.309Z,10.40
2024-02-11T18:42:25.168Z,8.15
2024-02-11T18:44:55.737Z,10.32
2024-02-11T18:47:26.562Z,11.48
2024-02-11T18:49:57.253Z,15.55
2024-02-11T18:52:31.170Z,8.43
2024-02-11T18:55:01.904Z,11.15
2024-02-11T18:57:33.317Z,10.05
2024-02-11T19:00:07.640Z,11.85
2024-02-11T19:02:39.011Z,8.77
2024-02-11T19:05:11.195Z,10.05
2024-02-11T19:07:44.903Z,7.70
2024-02-11T19:10:20.430Z,12.55
2024-02-11T19:12:51.371Z,9.98
2024-02-11T19:15:21.973Z,9.93
2024-02-11T19:17:52.845Z,11.73
2024-02-11T19:20:23.527Z,8.07
2024-02-11T19:22:57.074Z,8.95
2024-02-11T19:25:28.172Z,8.98
2024-02-11T19:27:58.730Z,10.95
2024-02-11T19:30:29.888Z,10.75
2024-02-11T19:33:11.136Z,8.65
2024-02-11T19:35:59.657Z,10.75
2024-02-11T19:38:32.973Z,7.65
2024-02-11T19:41:03.788Z,13.27
2024-02-11T19:43:34.456Z,11.40
2024-02-11T19:46:05.702Z,7.70
2024-02-11T19:48:38.095Z,17.52
2024-02-11T19:51:09.205Z,9.93
2024-02-11T19:53:42.699Z,13.85
2024-02-11T19:56:13.811Z,10.75
2024-02-11T19:58:45.537Z,9.13
2024-02-11T20:01:18.520Z,10.70
2024-02-11T20:03:50.774Z,10.80
2024-02-11T20:06:22.747Z,9.07
2024-02-11T20:08:56.025Z,12.68
2024-02-11T20:11:29.884Z,8.50
2024-02-11T20:14:01.874Z,11.48
2024-02-11T20:16:32.589Z,7.32
2024-02-11T20:19:03.829Z,7.88
2024-02-11T20:21:34.681Z,9.32
2024-02-11T20:24:09.554Z,8.48
2024-02-11T20:26:41.560Z,11.10
2024-02-11T20:29:14.786Z,7.70
2024-02-11T20:31:50.139Z,9.30
2024-02-11T20:34:21.780Z,9.02
2024-02-11T20:36:52.569Z,11.27
2024-02-11T20:39:25.926Z,10.30
2024-02-11T20:42:00.813Z,7.47
2024-02-11T20:44:33.134Z,6.15
2024-02-11T20:47:04.754Z,8.75
2024-02-11T20:49:36.613Z,11.57
2024-02-11T20:52:08.204Z,7.18
2024-02-11T20:54:41.708Z,11.18
2024-02-11T20:57:12.358Z,9.68
2024-02-11T20:59:43.043Z,8.75
2024-02-11T21:02:13.609Z,9.40
2024-02-11T21:04:44.288Z,7.57
2024-02-11T21:07:15.528Z,5.45
2024-02-11T21:09:51.032Z,9.63
2024-02-11T21:12:21.621Z,6.95
2024-02-11T21:15:04.932Z,6.82
2024-02-11T21:17:36.047Z,15.43
2024-02-11T21:20:14.025Z,13.32
2024-02-11T21:22:45.141Z,7.03
2024-02-11T21:25:18.414Z,6.47
2024-02-11T21:27:57.325Z,5.78
2024-02-11T21:30:30.924Z,6.47
2024-02-11T21:33:03.195Z,5.38
2024-02-11T21:35:33.965Z,6.78
2024-02-11T21:38:04.687Z,6.65
2024-02-11T21:40:41.550Z,7.53
2024-02-11T21:43:12.780Z,8.15
2024-02-11T21:45:43.497Z,6.63
2024-02-11T21:48:14.077Z,6.03
2024-02-11T21:50:45.310Z,6.93
2024-02-11T21:53:15.933Z,5.15
2024-02-11T21:55:49.241Z,5.20
2024-02-11T21:58:19.803Z,11.63
2024-02-11T22:00:50.725Z,9.50
2024-02-11T22:03:21.430Z,8.57
2024-02-11T22:05:52.442Z,5.95
2024-02-11T22:08:23.198Z,5.43
2024-02-11T22:10:56.545Z,4.82
2024-02-11T22:13:24.846Z,6.88
2024-02-11T22:15:55.327Z,4.72
2024-02-11T22:18:27.153Z,4.60
2024-02-11T22:20:57.874Z,7.13
2024-02-11T22:23:28.564Z,7.45
2024-02-11T22:26:03.249Z,5.65
2024-02-11T22:28:34.404Z,5.55
2024-02-11T22:31:04.982Z,5.95
2024-02-11T22:33:35.707Z,5.22
2024-02-11T22:36:06.308Z,4.05
2024-02-11T22:38:37.714Z,5.30
2024-02-11T22:41:12.945Z,5.25
2024-02-11T22:43:43.564Z,5.97
2024-02-11T22:46:15.014Z,5.38
2024-02-11T22:48:45.978Z,7.03
2024-02-11T22:51:16.918Z,5.60
2024-02-11T22:53:48.402Z,5.53
2024-02-11T22:56:22.042Z,6.18
2024-02-11T22:58:52.718Z,3.97
2024-02-11T23:01:23.332Z,7.97
2024-02-11T23:03:53.974Z,6.88
2024-02-11T23:06:24.862Z,5.07
2024-02-11T23:08:55.803Z,6.15
2024-02-11T23:11:29.124Z,6.07
2024-02-11T23:14:00.024Z,4.55
2024-02-11T23:16:31.019Z,3.90
2024-02-11T23:19:26.545Z,5.78
2024-02-11T23:21:58.687Z,4.00
2024-02-11T23:24:29.482Z,5.13
2024-02-11T23:27:07.411Z,4.00
2024-02-11T23:29:39.267Z,3.33
2024-02-11T23:32:11.430Z,4.32
2024-02-11T23:34:42.413Z,3.65
2024-02-11T23:37:17.247Z,3.88
2024-02-11T23:39:49.274Z,5.35
2024-02-11T23:42:31.568Z,4.57
2024-02-11T23:45:03.092Z,3.67
2024-02-11T23:47:37.404Z,3.00
2024-02-11T23:50:08.630Z,3.65
2024-02-11T23:52:40.116Z,3.70
2024-02-11T23:55:12.270Z,3.40
2024-02-11T23:57:46.647Z,4.72
